NCAR-RAP Real-Time Weather Data

Output produced by METARs form (10 April 2020  07:15 UTC)
found at http://weather.rap.ucar.edu/surface/
 
KMKG 100703Z AUTO 34010KT 10SM SCT041 OVC050 01/M02 A2985 RMK AO2 T00111017